SWA175 KALB-KMCO
Flight info
| Callsign | SWA175 |
|---|---|
| Flight time | 2h 22m |
| Altitude | 34000 |
| Route | PWL HEADI Q97 KOHLS/N0451F360 Q97 ELMSZ IGARY Q85 LPERD SNFLD3 |
| Aircraft | B738/M-SDE2E3FGHIRWXY/LB1 |
Departure
| Time | 2026-05-06 00:29 |
|---|---|
| Airport | Albany International Airport (KALB) |
Arrival
| Time | 2026-05-06 02:52 |
|---|---|
| Airport | Orlando International Airport (KMCO) |
| Time | Latitude | Longitude | Altitude | Speed | Heading |
|---|---|---|---|---|---|
| 2026-05-06 00:13 | 42.74535 | -73.80836 | 294 ft | 0 kts | 272° |
| 2026-05-06 00:23 | 42.74535 | -73.80823 | 294 ft | 2 kts | 272° |
| 2026-05-06 00:23 | 42.74534 | -73.80798 | 294 ft | 3 kts | 272° |
| 2026-05-06 00:24 | 42.74533 | -73.80771 | 294 ft | 3 kts | 272° |
| 2026-05-06 00:24 | 42.74532 | -73.80750 | 294 ft | 0 kts | 272° |
| 2026-05-06 00:25 | 42.74536 | -73.80758 | 294 ft | 3 kts | 313° |
| 2026-05-06 00:25 | 42.74569 | -73.80710 | 294 ft | 15 kts | 67° |
| 2026-05-06 00:26 | 42.74660 | -73.80622 | 294 ft | 22 kts | 358° |
| 2026-05-06 00:26 | 42.74823 | -73.80629 | 294 ft | 25 kts | 358° |
| 2026-05-06 00:26 | 42.74991 | -73.80635 | 294 ft | 24 kts | 359° |
| 2026-05-06 00:26 | 42.75162 | -73.80641 | 294 ft | 25 kts | 358° |
| 2026-05-06 00:27 | 42.75354 | -73.80649 | 294 ft | 24 kts | 359° |
| 2026-05-06 00:27 | 42.75541 | -73.80656 | 294 ft | 30 kts | 358° |
| 2026-05-06 00:27 | 42.75724 | -73.80666 | 294 ft | 22 kts | 357° |
| 2026-05-06 00:27 | 42.75860 | -73.80675 | 294 ft | 21 kts | 358° |
| 2026-05-06 00:28 | 42.75998 | -73.80656 | 294 ft | 14 kts | 55° |
| 2026-05-06 00:28 | 42.76005 | -73.80526 | 294 ft | 6 kts | 95° |
| 2026-05-06 00:28 | 42.75981 | -73.80521 | 294 ft | 13 kts | 180° |
| 2026-05-06 00:28 | 42.75740 | -73.80512 | 294 ft | 65 kts | 178° |
| 2026-05-06 00:29 | 42.75015 | -73.80483 | 294 ft | 150 kts | 178° |
| 2026-05-06 00:29 | 42.73738 | -73.80420 | 737 ft | 207 kts | 177° |
| 2026-05-06 00:29 | 42.72259 | -73.80352 | 1258 ft | 211 kts | 177° |
| 2026-05-06 00:29 | 42.70781 | -73.80245 | 1658 ft | 214 kts | 176° |
| 2026-05-06 00:30 | 42.69317 | -73.80127 | 2148 ft | 208 kts | 176° |
| 2026-05-06 00:30 | 42.67878 | -73.80005 | 2616 ft | 207 kts | 177° |
| 2026-05-06 00:30 | 42.66542 | -73.79868 | 3062 ft | 214 kts | 177° |
| 2026-05-06 00:30 | 42.65102 | -73.79451 | 3560 ft | 225 kts | 168° |
| 2026-05-06 00:31 | 42.63545 | -73.78829 | 4350 ft | 241 kts | 169° |
| 2026-05-06 00:31 | 42.61841 | -73.78188 | 5406 ft | 265 kts | 172° |
| 2026-05-06 00:31 | 42.60018 | -73.77590 | 6430 ft | 272 kts | 175° |
| 2026-05-06 00:31 | 42.58157 | -73.77046 | 7444 ft | 275 kts | 177° |
| 2026-05-06 00:32 | 42.56281 | -73.76547 | 8454 ft | 274 kts | 178° |
| 2026-05-06 00:32 | 42.54405 | -73.76084 | 9461 ft | 273 kts | 178° |
| 2026-05-06 00:32 | 42.52531 | -73.75647 | 10457 ft | 273 kts | 178° |
| 2026-05-06 00:32 | 42.50682 | -73.75230 | 11447 ft | 275 kts | 179° |
| 2026-05-06 00:33 | 42.48960 | -73.74853 | 12356 ft | 276 kts | 178° |
| 2026-05-06 00:33 | 42.47594 | -73.74561 | 13073 ft | 279 kts | 179° |
| 2026-05-06 00:33 | 42.45663 | -73.74151 | 14073 ft | 283 kts | 179° |
| 2026-05-06 00:33 | 42.43701 | -73.73742 | 15080 ft | 287 kts | 179° |
| 2026-05-06 00:34 | 42.41729 | -73.73335 | 16075 ft | 295 kts | 178° |
| 2026-05-06 00:34 | 42.39645 | -73.72913 | 17093 ft | 311 kts | 178° |
| 2026-05-06 00:34 | 42.37454 | -73.72472 | 18109 ft | 325 kts | 177° |
| 2026-05-06 00:34 | 42.35180 | -73.72012 | 19120 ft | 335 kts | 176° |
| 2026-05-06 00:35 | 42.32850 | -73.71534 | 20127 ft | 342 kts | 176° |
| 2026-05-06 00:35 | 42.30484 | -73.71044 | 21129 ft | 347 kts | 176° |
| 2026-05-06 00:35 | 42.28079 | -73.70544 | 22133 ft | 352 kts | 176° |
| 2026-05-06 00:35 | 42.25640 | -73.70036 | 23136 ft | 357 kts | 176° |
| 2026-05-06 00:36 | 42.23163 | -73.69523 | 24140 ft | 362 kts | 176° |
| 2026-05-06 00:36 | 42.20652 | -73.69001 | 25062 ft | 369 kts | 176° |
| 2026-05-06 00:36 | 42.18081 | -73.68470 | 25850 ft | 377 kts | 177° |
| 2026-05-06 00:36 | 42.15455 | -73.67931 | 26612 ft | 385 kts | 177° |
| 2026-05-06 00:37 | 42.12796 | -73.67386 | 27365 ft | 391 kts | 177° |
| 2026-05-06 00:37 | 42.10119 | -73.66837 | 28110 ft | 395 kts | 177° |
| 2026-05-06 00:37 | 42.07351 | -73.66269 | 28842 ft | 400 kts | 177° |
| 2026-05-06 00:37 | 42.04575 | -73.65702 | 29404 ft | 408 kts | 177° |
| 2026-05-06 00:38 | 42.01777 | -73.65132 | 29913 ft | 415 kts | 178° |
| 2026-05-06 00:38 | 41.98896 | -73.64546 | 30419 ft | 422 kts | 178° |
| 2026-05-06 00:38 | 41.95973 | -73.63952 | 30923 ft | 428 kts | 177° |
| 2026-05-06 00:38 | 41.93008 | -73.63348 | 31427 ft | 432 kts | 177° |
| 2026-05-06 00:39 | 41.90024 | -73.62739 | 31929 ft | 436 kts | 177° |
| 2026-05-06 00:39 | 41.87016 | -73.62123 | 32430 ft | 439 kts | 176° |
| 2026-05-06 00:39 | 41.83983 | -73.61501 | 32932 ft | 441 kts | 176° |
| 2026-05-06 00:39 | 41.80940 | -73.60878 | 33433 ft | 442 kts | 177° |
| 2026-05-06 00:40 | 41.77878 | -73.60471 | 33940 ft | 440 kts | 182° |
| 2026-05-06 00:40 | 41.74827 | -73.60330 | 34447 ft | 438 kts | 184° |
| 2026-05-06 00:40 | 41.72802 | -73.60331 | 34784 ft | 437 kts | 186° |
| 2026-05-06 00:40 | 41.68781 | -73.60471 | 35452 ft | 435 kts | 187° |
| 2026-05-06 00:41 | 41.65764 | -73.60648 | 35951 ft | 434 kts | 187° |
| 2026-05-06 00:41 | 41.62749 | -73.60855 | 36451 ft | 432 kts | 187° |
| 2026-05-06 00:41 | 41.60751 | -73.61002 | 36783 ft | 431 kts | 187° |
| 2026-05-06 00:41 | 41.56794 | -73.61304 | 37437 ft | 428 kts | 188° |
| 2026-05-06 00:42 | 41.53789 | -73.61539 | 37761 ft | 431 kts | 188° |
| 2026-05-06 00:42 | 41.50766 | -73.61777 | 37916 ft | 437 kts | 187° |
| 2026-05-06 00:42 | 41.49774 | -73.61855 | 37945 ft | 440 kts | 187° |
| 2026-05-06 00:42 | 41.44900 | -73.62237 | 37999 ft | 453 kts | 187° |
| 2026-05-06 00:43 | 41.41710 | -73.62483 | 37997 ft | 457 kts | 187° |
| 2026-05-06 00:43 | 41.36451 | -73.62873 | 37994 ft | 457 kts | 187° |
| 2026-05-06 00:44 | 41.29004 | -73.63409 | 37996 ft | 459 kts | 187° |
| 2026-05-06 00:44 | 41.22654 | -73.63855 | 37997 ft | 456 kts | 187° |
| 2026-05-06 00:45 | 41.16333 | -73.64293 | 37993 ft | 456 kts | 187° |
| 2026-05-06 00:45 | 41.09991 | -73.64732 | 37992 ft | 454 kts | 187° |
| 2026-05-06 00:46 | 41.03710 | -73.65165 | 37991 ft | 451 kts | 187° |
| 2026-05-06 00:46 | 40.97468 | -73.65595 | 37986 ft | 450 kts | 187° |
| 2026-05-06 00:47 | 40.91355 | -73.66018 | 37988 ft | 450 kts | 187° |
| 2026-05-06 00:47 | 40.86150 | -73.66383 | 37987 ft | 452 kts | 186° |
| 2026-05-06 00:48 | 40.79058 | -73.66873 | 37970 ft | 457 kts | 187° |
| 2026-05-06 00:48 | 40.72682 | -73.67307 | 37934 ft | 457 kts | 187° |
| 2026-05-06 00:49 | 40.66338 | -73.67739 | 37900 ft | 456 kts | 187° |
| 2026-05-06 00:49 | 40.60025 | -73.68168 | 37883 ft | 455 kts | 187° |
| 2026-05-06 00:50 | 40.53706 | -73.68598 | 37898 ft | 454 kts | 187° |
| 2026-05-06 00:50 | 40.50582 | -73.68810 | 37897 ft | 453 kts | 187° |
| 2026-05-06 00:51 | 40.41143 | -73.69450 | 37880 ft | 451 kts | 187° |
| 2026-05-06 00:51 | 40.34874 | -73.69873 | 37882 ft | 449 kts | 187° |
| 2026-05-06 00:52 | 40.28652 | -73.70293 | 37891 ft | 448 kts | 187° |
| 2026-05-06 00:52 | 40.22445 | -73.70713 | 37901 ft | 448 kts | 187° |
| 2026-05-06 00:53 | 40.16160 | -73.71140 | 37921 ft | 453 kts | 187° |
| 2026-05-06 00:53 | 40.09858 | -73.71568 | 37945 ft | 456 kts | 187° |
| 2026-05-06 00:54 | 40.03477 | -73.71998 | 37956 ft | 458 kts | 187° |
| 2026-05-06 00:54 | 39.97175 | -73.72760 | 37963 ft | 453 kts | 196° |
| 2026-05-06 00:55 | 39.91140 | -73.74977 | 37967 ft | 449 kts | 204° |
| 2026-05-06 00:55 | 39.86257 | -73.77385 | 37966 ft | 448 kts | 207° |
| 2026-05-06 00:56 | 39.80523 | -73.80491 | 37964 ft | 448 kts | 208° |
| 2026-05-06 00:56 | 39.74780 | -73.83684 | 37963 ft | 448 kts | 208° |
| 2026-05-06 00:57 | 39.69032 | -73.86863 | 37963 ft | 449 kts | 208° |
| 2026-05-06 00:57 | 39.63278 | -73.90003 | 37966 ft | 450 kts | 208° |
| 2026-05-06 00:58 | 39.57488 | -73.93118 | 37963 ft | 448 kts | 208° |
| 2026-05-06 00:58 | 39.51747 | -73.96171 | 37963 ft | 447 kts | 208° |
| 2026-05-06 00:59 | 39.45975 | -73.99221 | 37963 ft | 446 kts | 207° |
| 2026-05-06 00:59 | 39.40530 | -74.02859 | 37967 ft | 439 kts | 218° |
| 2026-05-06 01:00 | 39.35741 | -74.07375 | 37966 ft | 436 kts | 224° |
| 2026-05-06 01:00 | 39.31190 | -74.12237 | 37964 ft | 435 kts | 226° |
| 2026-05-06 01:01 | 39.26608 | -74.17326 | 37963 ft | 435 kts | 226° |
| 2026-05-06 01:01 | 39.22037 | -74.22428 | 37958 ft | 436 kts | 226° |
| 2026-05-06 01:02 | 39.17442 | -74.27521 | 37948 ft | 437 kts | 226° |
| 2026-05-06 01:02 | 39.12806 | -74.32622 | 37937 ft | 441 kts | 225° |
| 2026-05-06 01:03 | 39.08074 | -74.37781 | 37937 ft | 446 kts | 226° |
| 2026-05-06 01:03 | 39.03334 | -74.42919 | 37923 ft | 447 kts | 226° |
| 2026-05-06 01:04 | 38.98551 | -74.48077 | 37888 ft | 447 kts | 226° |
| 2026-05-06 01:04 | 38.93835 | -74.53251 | 37881 ft | 445 kts | 227° |
| 2026-05-06 01:05 | 38.89239 | -74.58503 | 37875 ft | 441 kts | 228° |
| 2026-05-06 01:05 | 38.84720 | -74.63775 | 37874 ft | 440 kts | 228° |
| 2026-05-06 01:06 | 38.80183 | -74.69107 | 37875 ft | 440 kts | 228° |
| 2026-05-06 01:06 | 38.75655 | -74.74342 | 37875 ft | 441 kts | 227° |
| 2026-05-06 01:07 | 38.70951 | -74.79451 | 37886 ft | 442 kts | 226° |
| 2026-05-06 01:07 | 38.66199 | -74.84438 | 37892 ft | 442 kts | 225° |
| 2026-05-06 01:08 | 38.61405 | -74.89400 | 37876 ft | 442 kts | 225° |
| 2026-05-06 01:08 | 38.56636 | -74.94313 | 37889 ft | 442 kts | 225° |
| 2026-05-06 01:09 | 38.51884 | -74.99319 | 37919 ft | 441 kts | 226° |
| 2026-05-06 01:09 | 38.47275 | -75.04243 | 37997 ft | 443 kts | 225° |
| 2026-05-06 01:10 | 38.42431 | -75.09101 | 37992 ft | 445 kts | 224° |
| 2026-05-06 01:10 | 38.37494 | -75.13875 | 38013 ft | 446 kts | 223° |
| 2026-05-06 01:11 | 38.32501 | -75.18628 | 38022 ft | 447 kts | 223° |
| 2026-05-06 01:11 | 38.27539 | -75.23319 | 38004 ft | 445 kts | 223° |
| 2026-05-06 01:12 | 38.22569 | -75.28001 | 38019 ft | 443 kts | 223° |
| 2026-05-06 01:12 | 38.17605 | -75.32672 | 38022 ft | 442 kts | 223° |
| 2026-05-06 01:13 | 38.12685 | -75.37304 | 38022 ft | 441 kts | 223° |
| 2026-05-06 01:13 | 38.07747 | -75.41947 | 38022 ft | 441 kts | 223° |
| 2026-05-06 01:14 | 38.00251 | -75.48699 | 38022 ft | 442 kts | 221° |
| 2026-05-06 01:14 | 37.95167 | -75.53147 | 38023 ft | 443 kts | 221° |
| 2026-05-06 01:15 | 37.90086 | -75.57552 | 38022 ft | 444 kts | 221° |
| 2026-05-06 01:15 | 37.84961 | -75.61899 | 38023 ft | 445 kts | 219° |
| 2026-05-06 01:16 | 37.79677 | -75.66078 | 38022 ft | 447 kts | 218° |
| 2026-05-06 01:16 | 37.75256 | -75.69450 | 38022 ft | 448 kts | 218° |
| 2026-05-06 01:17 | 37.68993 | -75.74147 | 38023 ft | 450 kts | 217° |
| 2026-05-06 01:17 | 37.63560 | -75.78201 | 38029 ft | 456 kts | 218° |
| 2026-05-06 01:18 | 37.58101 | -75.82250 | 38024 ft | 454 kts | 218° |
| 2026-05-06 01:18 | 37.54523 | -75.84998 | 38023 ft | 450 kts | 220° |
| 2026-05-06 01:19 | 37.47639 | -75.90802 | 38018 ft | 445 kts | 222° |
| 2026-05-06 01:19 | 37.42571 | -75.95264 | 38016 ft | 445 kts | 223° |
| 2026-05-06 01:20 | 37.37520 | -75.99755 | 38015 ft | 445 kts | 223° |
| 2026-05-06 01:20 | 37.33305 | -76.03506 | 38012 ft | 446 kts | 223° |
| 2026-05-06 01:21 | 37.27389 | -76.08760 | 38007 ft | 447 kts | 223° |
| 2026-05-06 01:21 | 37.22302 | -76.13263 | 38003 ft | 448 kts | 223° |
| 2026-05-06 01:22 | 37.21439 | -76.14025 | 38002 ft | 448 kts | 223° |
| 2026-05-06 01:22 | 37.12098 | -76.22254 | 37969 ft | 447 kts | 223° |
| 2026-05-06 01:23 | 37.07287 | -76.26475 | 37964 ft | 447 kts | 224° |
| 2026-05-06 01:23 | 37.02200 | -76.30928 | 37963 ft | 448 kts | 223° |
| 2026-05-06 01:24 | 36.97088 | -76.35401 | 37964 ft | 450 kts | 223° |
| 2026-05-06 01:24 | 36.92045 | -76.39806 | 37964 ft | 449 kts | 223° |
| 2026-05-06 01:25 | 36.86931 | -76.44262 | 37963 ft | 448 kts | 223° |
| 2026-05-06 01:25 | 36.81843 | -76.48687 | 37963 ft | 447 kts | 223° |
| 2026-05-06 01:26 | 36.76743 | -76.53117 | 37963 ft | 448 kts | 223° |
| 2026-05-06 01:26 | 36.71594 | -76.57584 | 37963 ft | 448 kts | 223° |
| 2026-05-06 01:27 | 36.66471 | -76.62021 | 37963 ft | 449 kts | 223° |
| 2026-05-06 01:27 | 36.61339 | -76.66459 | 37964 ft | 450 kts | 223° |
| 2026-05-06 01:28 | 36.56209 | -76.70886 | 37963 ft | 450 kts | 223° |
| 2026-05-06 01:28 | 36.52090 | -76.74434 | 37963 ft | 450 kts | 223° |
| 2026-05-06 01:29 | 36.46953 | -76.78854 | 37964 ft | 451 kts | 223° |
| 2026-05-06 01:29 | 36.42648 | -76.82552 | 37963 ft | 450 kts | 223° |
| 2026-05-06 01:30 | 36.36656 | -76.87715 | 37963 ft | 449 kts | 223° |
| 2026-05-06 01:30 | 36.32390 | -76.91424 | 37963 ft | 449 kts | 224° |
| 2026-05-06 01:31 | 36.26489 | -76.96572 | 37963 ft | 449 kts | 224° |
| 2026-05-06 01:31 | 36.22206 | -77.00308 | 37964 ft | 447 kts | 224° |
| 2026-05-06 01:32 | 36.16277 | -77.05475 | 37970 ft | 448 kts | 224° |
| 2026-05-06 01:32 | 36.12024 | -77.09200 | 37970 ft | 453 kts | 220° |
| 2026-05-06 01:33 | 36.05950 | -77.14483 | 37971 ft | 458 kts | 221° |
| 2026-05-06 01:33 | 36.00731 | -77.18979 | 37981 ft | 457 kts | 224° |
| 2026-05-06 01:34 | 35.95546 | -77.23464 | 37993 ft | 454 kts | 224° |
| 2026-05-06 01:34 | 35.90470 | -77.28088 | 38004 ft | 451 kts | 227° |
| 2026-05-06 01:35 | 35.85498 | -77.32805 | 38009 ft | 451 kts | 228° |
| 2026-05-06 01:36 | 35.75621 | -77.42360 | 38019 ft | 453 kts | 228° |
| 2026-05-06 01:36 | 35.70682 | -77.47139 | 38020 ft | 454 kts | 228° |
| 2026-05-06 01:37 | 35.65708 | -77.51936 | 38023 ft | 455 kts | 228° |
| 2026-05-06 01:37 | 35.60697 | -77.56749 | 38022 ft | 456 kts | 228° |
| 2026-05-06 01:38 | 35.57615 | -77.59700 | 38023 ft | 456 kts | 227° |
| 2026-05-06 01:38 | 35.54288 | -77.62878 | 38022 ft | 455 kts | 227° |
| 2026-05-06 01:39 | 35.46778 | -77.70037 | 38022 ft | 454 kts | 227° |
| 2026-05-06 01:39 | 35.41800 | -77.74775 | 38022 ft | 454 kts | 227° |
| 2026-05-06 01:40 | 35.36809 | -77.79519 | 38023 ft | 453 kts | 227° |
| 2026-05-06 01:40 | 35.31828 | -77.84247 | 38022 ft | 453 kts | 227° |
| 2026-05-06 01:41 | 35.26832 | -77.88982 | 38022 ft | 453 kts | 227° |
| 2026-05-06 01:41 | 35.21855 | -77.93693 | 38022 ft | 454 kts | 227° |
| 2026-05-06 01:42 | 35.16842 | -77.98432 | 38022 ft | 455 kts | 227° |
| 2026-05-06 01:42 | 35.11835 | -78.03158 | 38023 ft | 456 kts | 227° |
| 2026-05-06 01:43 | 35.06826 | -78.07877 | 38022 ft | 457 kts | 227° |
| 2026-05-06 01:43 | 35.01795 | -78.12607 | 38022 ft | 457 kts | 227° |
| 2026-05-06 01:44 | 34.96744 | -78.17348 | 38022 ft | 457 kts | 227° |
| 2026-05-06 01:44 | 34.91681 | -78.22092 | 38024 ft | 457 kts | 227° |
| 2026-05-06 01:45 | 34.86676 | -78.26770 | 38022 ft | 455 kts | 228° |
| 2026-05-06 01:45 | 34.81653 | -78.31455 | 38022 ft | 453 kts | 227° |
| 2026-05-06 01:46 | 34.76664 | -78.36109 | 38022 ft | 454 kts | 228° |
| 2026-05-06 01:46 | 34.71640 | -78.40791 | 38022 ft | 455 kts | 228° |
| 2026-05-06 01:47 | 34.66592 | -78.45493 | 38023 ft | 458 kts | 228° |
| 2026-05-06 01:47 | 34.61542 | -78.50220 | 38020 ft | 464 kts | 223° |
| 2026-05-06 01:48 | 34.56358 | -78.55035 | 38029 ft | 473 kts | 228° |
| 2026-05-06 01:48 | 34.51137 | -78.59831 | 38025 ft | 470 kts | 227° |
| 2026-05-06 01:49 | 34.45930 | -78.64620 | 38022 ft | 466 kts | 227° |
| 2026-05-06 01:49 | 34.40741 | -78.69340 | 38022 ft | 466 kts | 227° |
| 2026-05-06 01:50 | 34.35488 | -78.73883 | 38022 ft | 466 kts | 226° |
| 2026-05-06 01:50 | 34.30152 | -78.78363 | 38022 ft | 466 kts | 225° |
| 2026-05-06 01:51 | 34.24803 | -78.82789 | 38023 ft | 464 kts | 225° |
| 2026-05-06 01:51 | 34.19501 | -78.87162 | 38022 ft | 461 kts | 225° |
| 2026-05-06 01:52 | 34.14205 | -78.91546 | 38022 ft | 459 kts | 225° |
| 2026-05-06 01:52 | 34.08972 | -78.95888 | 38022 ft | 458 kts | 225° |
| 2026-05-06 01:53 | 34.03703 | -79.00262 | 38022 ft | 458 kts | 225° |
| 2026-05-06 01:53 | 33.98475 | -79.04597 | 38022 ft | 458 kts | 225° |
| 2026-05-06 01:54 | 33.93211 | -79.08956 | 38022 ft | 458 kts | 225° |
| 2026-05-06 01:54 | 33.87970 | -79.13288 | 38023 ft | 459 kts | 225° |
| 2026-05-06 01:55 | 33.82689 | -79.17646 | 38024 ft | 460 kts | 225° |
| 2026-05-06 01:55 | 33.77424 | -79.21983 | 38024 ft | 460 kts | 225° |
| 2026-05-06 01:56 | 33.72119 | -79.26345 | 38029 ft | 461 kts | 225° |
| 2026-05-06 01:56 | 33.66966 | -79.30830 | 38041 ft | 457 kts | 228° |
| 2026-05-06 01:57 | 33.61985 | -79.35571 | 38044 ft | 455 kts | 230° |
| 2026-05-06 01:57 | 33.57133 | -79.40348 | 38052 ft | 453 kts | 230° |
| 2026-05-06 01:58 | 33.52275 | -79.45178 | 38072 ft | 451 kts | 230° |
| 2026-05-06 01:58 | 33.47475 | -79.49961 | 38059 ft | 450 kts | 230° |
| 2026-05-06 01:59 | 33.42648 | -79.54764 | 38056 ft | 449 kts | 230° |
| 2026-05-06 01:59 | 33.37862 | -79.59515 | 38082 ft | 449 kts | 230° |
| 2026-05-06 02:00 | 33.33031 | -79.64299 | 38108 ft | 450 kts | 230° |
| 2026-05-06 02:00 | 33.28224 | -79.69049 | 38104 ft | 450 kts | 230° |
| 2026-05-06 02:01 | 33.23377 | -79.73826 | 38080 ft | 451 kts | 230° |
| 2026-05-06 02:01 | 33.18547 | -79.78576 | 38096 ft | 450 kts | 230° |
| 2026-05-06 02:02 | 33.13728 | -79.83303 | 38108 ft | 449 kts | 230° |
| 2026-05-06 02:02 | 33.08879 | -79.88064 | 38115 ft | 454 kts | 230° |
| 2026-05-06 02:03 | 33.03984 | -79.92851 | 38112 ft | 453 kts | 230° |
| 2026-05-06 02:03 | 32.99139 | -79.97577 | 38111 ft | 452 kts | 230° |
| 2026-05-06 02:04 | 32.94272 | -80.02320 | 38107 ft | 451 kts | 230° |
| 2026-05-06 02:04 | 32.89413 | -80.07049 | 38059 ft | 449 kts | 230° |
| 2026-05-06 02:05 | 32.84610 | -80.11716 | 38052 ft | 447 kts | 230° |
| 2026-05-06 02:05 | 32.79776 | -80.16410 | 38052 ft | 447 kts | 230° |
| 2026-05-06 02:06 | 32.75782 | -80.20286 | 38052 ft | 448 kts | 230° |
| 2026-05-06 02:06 | 32.70117 | -80.25779 | 38052 ft | 449 kts | 230° |
| 2026-05-06 02:07 | 32.65302 | -80.30436 | 38052 ft | 449 kts | 230° |
| 2026-05-06 02:07 | 32.60443 | -80.35111 | 38052 ft | 450 kts | 228° |
| 2026-05-06 02:08 | 32.55262 | -80.39371 | 38054 ft | 458 kts | 223° |
| 2026-05-06 02:08 | 32.49765 | -80.43311 | 38053 ft | 462 kts | 221° |
| 2026-05-06 02:09 | 32.44207 | -80.47082 | 38052 ft | 463 kts | 220° |
| 2026-05-06 02:09 | 32.38572 | -80.50835 | 38052 ft | 463 kts | 220° |
| 2026-05-06 02:10 | 32.32970 | -80.54550 | 38052 ft | 464 kts | 220° |
| 2026-05-06 02:10 | 32.27325 | -80.58298 | 38052 ft | 464 kts | 220° |
| 2026-05-06 02:11 | 32.21695 | -80.62042 | 38052 ft | 463 kts | 220° |
| 2026-05-06 02:11 | 32.16118 | -80.65754 | 38051 ft | 462 kts | 220° |
| 2026-05-06 02:12 | 32.10518 | -80.69487 | 38052 ft | 462 kts | 220° |
| 2026-05-06 02:12 | 32.04935 | -80.73211 | 38052 ft | 463 kts | 220° |
| 2026-05-06 02:13 | 31.99312 | -80.76960 | 38052 ft | 463 kts | 220° |
| 2026-05-06 02:13 | 31.94403 | -80.80229 | 38052 ft | 462 kts | 220° |
| 2026-05-06 02:14 | 31.87894 | -80.84555 | 38052 ft | 461 kts | 220° |
| 2026-05-06 02:14 | 31.83265 | -80.87629 | 38051 ft | 460 kts | 220° |
| 2026-05-06 02:15 | 31.77674 | -80.91341 | 38052 ft | 461 kts | 220° |
| 2026-05-06 02:15 | 31.72095 | -80.95042 | 38052 ft | 461 kts | 220° |
| 2026-05-06 02:16 | 31.66490 | -80.98753 | 38052 ft | 461 kts | 220° |
| 2026-05-06 02:16 | 31.60975 | -81.02391 | 38052 ft | 462 kts | 219° |
| 2026-05-06 02:17 | 31.55349 | -81.05974 | 38052 ft | 464 kts | 219° |
| 2026-05-06 02:17 | 31.49619 | -81.09533 | 38053 ft | 466 kts | 218° |
| 2026-05-06 02:18 | 31.43884 | -81.13021 | 38053 ft | 465 kts | 217° |
| 2026-05-06 02:18 | 31.38159 | -81.16474 | 38052 ft | 463 kts | 218° |
| 2026-05-06 02:19 | 31.32388 | -81.19922 | 38052 ft | 463 kts | 218° |
| 2026-05-06 02:19 | 31.26662 | -81.23330 | 37819 ft | 466 kts | 217° |
| 2026-05-06 02:20 | 31.20836 | -81.26725 | 37357 ft | 471 kts | 212° |
| 2026-05-06 02:20 | 31.17668 | -81.27901 | 37129 ft | 483 kts | 201° |
| 2026-05-06 02:20 | 31.14365 | -81.28587 | 36906 ft | 490 kts | 195° |
| 2026-05-06 02:21 | 31.10926 | -81.28953 | 36676 ft | 494 kts | 191° |
| 2026-05-06 02:21 | 31.07472 | -81.29097 | 36445 ft | 497 kts | 188° |
| 2026-05-06 02:21 | 31.04024 | -81.29102 | 36244 ft | 498 kts | 187° |
| 2026-05-06 02:21 | 31.00552 | -81.29025 | 36117 ft | 497 kts | 186° |
| 2026-05-06 02:22 | 30.97130 | -81.28907 | 36055 ft | 496 kts | 185° |
| 2026-05-06 02:22 | 30.90192 | -81.28638 | 35536 ft | 501 kts | 185° |
| 2026-05-06 02:22 | 30.86721 | -81.28514 | 35044 ft | 497 kts | 185° |
| 2026-05-06 02:23 | 30.83279 | -81.28400 | 34542 ft | 489 kts | 185° |
| 2026-05-06 02:23 | 30.79939 | -81.28303 | 34183 ft | 478 kts | 185° |
| 2026-05-06 02:23 | 30.76616 | -81.28223 | 34074 ft | 475 kts | 185° |
| 2026-05-06 02:24 | 30.69968 | -81.28135 | 34038 ft | 487 kts | 186° |
| 2026-05-06 02:24 | 30.63110 | -81.28094 | 34038 ft | 494 kts | 185° |
| 2026-05-06 02:25 | 30.56158 | -81.27834 | 33650 ft | 505 kts | 183° |
| 2026-05-06 02:25 | 30.52639 | -81.27631 | 33149 ft | 505 kts | 182° |
| 2026-05-06 02:25 | 30.49182 | -81.27399 | 32654 ft | 502 kts | 182° |
| 2026-05-06 02:25 | 30.45696 | -81.27144 | 32153 ft | 499 kts | 181° |
| 2026-05-06 02:26 | 30.42239 | -81.26878 | 31651 ft | 495 kts | 181° |
| 2026-05-06 02:26 | 30.38811 | -81.26607 | 31149 ft | 490 kts | 181° |
| 2026-05-06 02:26 | 30.35460 | -81.26338 | 30653 ft | 485 kts | 181° |
| 2026-05-06 02:26 | 30.32062 | -81.26064 | 30145 ft | 480 kts | 180° |
| 2026-05-06 02:27 | 30.28781 | -81.25800 | 29650 ft | 476 kts | 181° |
| 2026-05-06 02:27 | 30.25488 | -81.25536 | 29149 ft | 472 kts | 181° |
| 2026-05-06 02:27 | 30.22220 | -81.25277 | 28647 ft | 468 kts | 181° |
| 2026-05-06 02:27 | 30.18979 | -81.25023 | 28145 ft | 464 kts | 181° |
| 2026-05-06 02:28 | 30.15768 | -81.24772 | 27643 ft | 460 kts | 182° |
| 2026-05-06 02:28 | 30.12577 | -81.24525 | 27141 ft | 456 kts | 182° |
| 2026-05-06 02:28 | 30.09419 | -81.24283 | 26640 ft | 452 kts | 182° |
| 2026-05-06 02:28 | 30.06316 | -81.24048 | 26143 ft | 448 kts | 182° |
| 2026-05-06 02:29 | 30.03218 | -81.23815 | 25642 ft | 444 kts | 182° |
| 2026-05-06 02:29 | 30.00150 | -81.23585 | 25140 ft | 439 kts | 181° |
| 2026-05-06 02:29 | 29.97117 | -81.23359 | 24640 ft | 435 kts | 182° |
| 2026-05-06 02:29 | 29.94100 | -81.23135 | 24137 ft | 430 kts | 181° |
| 2026-05-06 02:30 | 29.91167 | -81.22919 | 23643 ft | 426 kts | 181° |
| 2026-05-06 02:30 | 29.88203 | -81.22700 | 23175 ft | 421 kts | 181° |
| 2026-05-06 02:30 | 29.85299 | -81.22485 | 23040 ft | 413 kts | 181° |
| 2026-05-06 02:30 | 29.83404 | -81.22345 | 22995 ft | 410 kts | 181° |
| 2026-05-06 02:31 | 29.79621 | -81.22068 | 22988 ft | 411 kts | 181° |
| 2026-05-06 02:31 | 29.76756 | -81.21861 | 22991 ft | 412 kts | 181° |
| 2026-05-06 02:31 | 29.73883 | -81.21651 | 22993 ft | 414 kts | 181° |
| 2026-05-06 02:31 | 29.70997 | -81.21428 | 22993 ft | 415 kts | 181° |
| 2026-05-06 02:32 | 29.68140 | -81.21197 | 22973 ft | 416 kts | 181° |
| 2026-05-06 02:32 | 29.65226 | -81.20958 | 22584 ft | 423 kts | 180° |
| 2026-05-06 02:32 | 29.62266 | -81.20708 | 22093 ft | 424 kts | 181° |
| 2026-05-06 02:32 | 29.59326 | -81.20452 | 21593 ft | 421 kts | 181° |
| 2026-05-06 02:33 | 29.56408 | -81.20198 | 21092 ft | 418 kts | 181° |
| 2026-05-06 02:33 | 29.54488 | -81.20037 | 20761 ft | 416 kts | 179° |
| 2026-05-06 02:33 | 29.47849 | -81.19471 | 19594 ft | 406 kts | 179° |
| 2026-05-06 02:34 | 29.45033 | -81.19227 | 19091 ft | 402 kts | 179° |
| 2026-05-06 02:34 | 29.42258 | -81.18987 | 18590 ft | 398 kts | 178° |
| 2026-05-06 02:34 | 29.39505 | -81.18749 | 18089 ft | 394 kts | 178° |
| 2026-05-06 02:34 | 29.36785 | -81.18514 | 17588 ft | 390 kts | 178° |
| 2026-05-06 02:35 | 29.33760 | -81.18253 | 17026 ft | 386 kts | 178° |
| 2026-05-06 02:35 | 29.31096 | -81.18023 | 16525 ft | 382 kts | 178° |
| 2026-05-06 02:35 | 29.28454 | -81.17794 | 16024 ft | 378 kts | 178° |
| 2026-05-06 02:35 | 29.25841 | -81.17566 | 15520 ft | 370 kts | 178° |
| 2026-05-06 02:36 | 29.23282 | -81.17342 | 15019 ft | 367 kts | 178° |
| 2026-05-06 02:36 | 29.20766 | -81.17001 | 14523 ft | 367 kts | 173° |
| 2026-05-06 02:36 | 29.18265 | -81.16417 | 14034 ft | 365 kts | 168° |
| 2026-05-06 02:36 | 29.15812 | -81.15647 | 13542 ft | 363 kts | 165° |
| 2026-05-06 02:37 | 29.13447 | -81.14758 | 13059 ft | 360 kts | 162° |
| 2026-05-06 02:37 | 29.11097 | -81.13767 | 12566 ft | 357 kts | 160° |
| 2026-05-06 02:37 | 29.08791 | -81.12756 | 12134 ft | 352 kts | 160° |
| 2026-05-06 02:37 | 29.06525 | -81.11782 | 12029 ft | 345 kts | 160° |
| 2026-05-06 02:38 | 29.04294 | -81.10849 | 12005 ft | 344 kts | 161° |
| 2026-05-06 02:38 | 29.02025 | -81.09929 | 12001 ft | 344 kts | 162° |
| 2026-05-06 02:38 | 29.00527 | -81.09362 | 12002 ft | 344 kts | 164° |
| 2026-05-06 02:38 | 28.97441 | -81.08436 | 12005 ft | 344 kts | 169° |
| 2026-05-06 02:39 | 28.95086 | -81.07914 | 12005 ft | 344 kts | 172° |
| 2026-05-06 02:39 | 28.92713 | -81.07515 | 12003 ft | 344 kts | 174° |
| 2026-05-06 02:39 | 28.90323 | -81.07407 | 12004 ft | 342 kts | 184° |
| 2026-05-06 02:39 | 28.87974 | -81.07692 | 11849 ft | 342 kts | 191° |
| 2026-05-06 02:40 | 28.85686 | -81.08243 | 11617 ft | 327 kts | 195° |
| 2026-05-06 02:40 | 28.84252 | -81.08696 | 11463 ft | 319 kts | 198° |
| 2026-05-06 02:40 | 28.81488 | -81.09729 | 11155 ft | 311 kts | 201° |
| 2026-05-06 02:40 | 28.79461 | -81.10571 | 10919 ft | 307 kts | 202° |
| 2026-05-06 02:41 | 28.78137 | -81.11140 | 10763 ft | 305 kts | 202° |
| 2026-05-06 02:41 | 28.76157 | -81.12003 | 10527 ft | 302 kts | 202° |
| 2026-05-06 02:41 | 28.73605 | -81.13100 | 10213 ft | 290 kts | 201° |
| 2026-05-06 02:41 | 28.71715 | -81.13812 | 9975 ft | 284 kts | 199° |
| 2026-05-06 02:42 | 28.70438 | -81.14246 | 9816 ft | 281 kts | 198° |
| 2026-05-06 02:42 | 28.68578 | -81.14830 | 9584 ft | 279 kts | 197° |
| 2026-05-06 02:42 | 28.66700 | -81.15377 | 9349 ft | 277 kts | 196° |
| 2026-05-06 02:42 | 28.64823 | -81.15897 | 9113 ft | 275 kts | 195° |
| 2026-05-06 02:43 | 28.62986 | -81.16388 | 8880 ft | 273 kts | 195° |
| 2026-05-06 02:43 | 28.61135 | -81.16874 | 8648 ft | 272 kts | 195° |
| 2026-05-06 02:43 | 28.59292 | -81.17353 | 8413 ft | 270 kts | 195° |
| 2026-05-06 02:43 | 28.57462 | -81.17824 | 8177 ft | 268 kts | 194° |
| 2026-05-06 02:44 | 28.55645 | -81.18188 | 7947 ft | 268 kts | 190° |
| 2026-05-06 02:44 | 28.53791 | -81.18430 | 7714 ft | 266 kts | 187° |
| 2026-05-06 02:44 | 28.51942 | -81.18576 | 7483 ft | 265 kts | 185° |
| 2026-05-06 02:44 | 28.50120 | -81.18656 | 7250 ft | 264 kts | 184° |
| 2026-05-06 02:45 | 28.48278 | -81.18695 | 7016 ft | 263 kts | 182° |
| 2026-05-06 02:45 | 28.46453 | -81.18708 | 6773 ft | 261 kts | 182° |
| 2026-05-06 02:45 | 28.44648 | -81.18713 | 6335 ft | 256 kts | 182° |
| 2026-05-06 02:45 | 28.42911 | -81.18713 | 5855 ft | 242 kts | 182° |
| 2026-05-06 02:46 | 28.41258 | -81.18709 | 5350 ft | 232 kts | 182° |
| 2026-05-06 02:46 | 28.39670 | -81.18705 | 4847 ft | 225 kts | 181° |
| 2026-05-06 02:46 | 28.38112 | -81.18707 | 4342 ft | 220 kts | 181° |
| 2026-05-06 02:46 | 28.36609 | -81.18714 | 3844 ft | 216 kts | 181° |
| 2026-05-06 02:47 | 28.35116 | -81.18731 | 3341 ft | 213 kts | 181° |
| 2026-05-06 02:47 | 28.33660 | -81.18759 | 3048 ft | 201 kts | 181° |
| 2026-05-06 02:47 | 28.32300 | -81.18793 | 3000 ft | 198 kts | 180° |
| 2026-05-06 02:47 | 28.30911 | -81.18875 | 3004 ft | 203 kts | 181° |
| 2026-05-06 02:48 | 28.29541 | -81.19228 | 3004 ft | 203 kts | 202° |
| 2026-05-06 02:48 | 28.28523 | -81.20350 | 3030 ft | 212 kts | 234° |
| 2026-05-06 02:48 | 28.28143 | -81.21980 | 3017 ft | 216 kts | 265° |
| 2026-05-06 02:48 | 28.28369 | -81.23654 | 3023 ft | 220 kts | 282° |
| 2026-05-06 02:49 | 28.28884 | -81.25296 | 3005 ft | 218 kts | 291° |
| 2026-05-06 02:49 | 28.29572 | -81.26811 | 2987 ft | 210 kts | 297° |
| 2026-05-06 02:49 | 28.30388 | -81.28128 | 2619 ft | 206 kts | 307° |
| 2026-05-06 02:49 | 28.31550 | -81.29227 | 2275 ft | 232 kts | 327° |
| 2026-05-06 02:50 | 28.33076 | -81.29716 | 1944 ft | 226 kts | 358° |
| 2026-05-06 02:50 | 28.34559 | -81.29724 | 1699 ft | 204 kts | 5° |
| 2026-05-06 02:50 | 28.35880 | -81.29674 | 1284 ft | 177 kts | 6° |
| 2026-05-06 02:50 | 28.37128 | -81.29605 | 978 ft | 181 kts | 7° |
| 2026-05-06 02:51 | 28.38359 | -81.29566 | 576 ft | 180 kts | 2° |
| 2026-05-06 02:51 | 28.39640 | -81.29534 | 356 ft | 185 kts | 0° |
| 2026-05-06 02:51 | 28.40831 | -81.29558 | 162 ft | 157 kts | 359° |
| 2026-05-06 02:51 | 28.41823 | -81.29569 | 105 ft | 125 kts | 359° |
| 2026-05-06 02:52 | 28.42453 | -81.29582 | 105 ft | 70 kts | 0° |
| 2026-05-06 02:52 | 28.42804 | -81.29608 | 105 ft | 26 kts | 324° |
| 2026-05-06 02:52 | 28.42903 | -81.29698 | 105 ft | 8 kts | 279° |
| 2026-05-06 02:52 | 28.42912 | -81.29787 | 105 ft | 14 kts | 288° |
| 2026-05-06 02:53 | 28.42994 | -81.29803 | 105 ft | 19 kts | 0° |
| 2026-05-06 02:53 | 28.43159 | -81.29803 | 105 ft | 27 kts | 360° |
| 2026-05-06 02:53 | 28.43305 | -81.29811 | 105 ft | 16 kts | 335° |
| 2026-05-06 02:53 | 28.43302 | -81.29908 | 105 ft | 18 kts | 244° |
| 2026-05-06 02:54 | 28.43281 | -81.30053 | 105 ft | 19 kts | 272° |
| 2026-05-06 02:54 | 28.43329 | -81.30195 | 105 ft | 16 kts | 317° |
| 2026-05-06 02:54 | 28.43415 | -81.30175 | 105 ft | 10 kts | 28° |
| 2026-05-06 02:54 | 28.43445 | -81.30151 | 105 ft | 0 kts | 34° |